createdAt,value
2022-09-14T00:01:30.611Z,12.75
2022-09-14T00:04:05.438Z,12.72
2022-09-14T00:06:33.395Z,12.65
2022-09-14T00:09:02.152Z,12.70
2022-09-14T00:11:31.779Z,12.69
2022-09-14T00:14:00.909Z,12.67
2022-09-14T00:16:31.881Z,12.67
2022-09-14T00:19:05.877Z,12.70
2022-09-14T00:21:38.653Z,12.79
2022-09-14T00:24:10.380Z,12.71
2022-09-14T00:26:38.243Z,12.73
2022-09-14T00:29:06.706Z,12.66
2022-09-14T00:31:37.268Z,12.77
2022-09-14T00:34:06.970Z,12.80
2022-09-14T00:36:39.662Z,12.82
2022-09-14T00:39:07.551Z,12.76
2022-09-14T00:41:38.353Z,12.86
2022-09-14T00:44:28.770Z,13.08
2022-09-14T00:46:59.036Z,12.91
2022-09-14T00:49:38.500Z,13.05
2022-09-14T00:52:17.486Z,13.10
2022-09-14T00:54:57.846Z,13.10
2022-09-14T00:57:27.927Z,13.06
2022-09-14T00:59:56.253Z,13.06
2022-09-14T01:02:26.265Z,13.14
2022-09-14T01:04:54.504Z,13.09
2022-09-14T01:07:38.509Z,13.15
2022-09-14T01:10:28.359Z,13.36
2022-09-14T01:13:23.267Z,13.46
2022-09-14T01:16:26.394Z,13.48
2022-09-14T01:19:10.941Z,13.44
2022-09-14T01:21:42.170Z,13.29
2022-09-14T01:24:37.059Z,13.47
2022-09-14T01:27:28.742Z,13.45
2022-09-14T01:30:07.000Z,13.47
2022-09-14T01:32:37.491Z,13.41
2022-09-14T01:35:15.292Z,13.34
2022-09-14T01:38:15.101Z,13.39
2022-09-14T01:40:47.286Z,13.40
2022-09-14T01:43:16.471Z,13.41
2022-09-14T01:45:49.328Z,13.42
2022-09-14T01:48:21.418Z,13.40
2022-09-14T01:50:55.051Z,13.38
2022-09-14T01:53:41.339Z,13.32
2022-09-14T01:56:20.710Z,13.40
2022-09-14T01:58:59.871Z,13.31
2022-09-14T02:01:56.656Z,13.49
2022-09-14T02:04:39.172Z,13.42
2022-09-14T02:07:07.157Z,13.30
2022-09-14T02:09:34.635Z,13.30
2022-09-14T02:12:02.683Z,13.33
2022-09-14T02:14:31.087Z,13.36
2022-09-14T02:16:59.086Z,13.38
2022-09-14T02:19:29.474Z,13.34
2022-09-14T02:21:56.909Z,13.40
2022-09-14T02:24:24.283Z,13.38
2022-09-14T02:26:55.130Z,13.47
2022-09-14T02:29:22.718Z,13.45
2022-09-14T02:32:08.219Z,13.65
2022-09-14T02:34:41.349Z,13.60
2022-09-14T02:37:19.010Z,13.65
2022-09-14T02:39:57.922Z,13.67
2022-09-14T02:43:04.071Z,13.80
2022-09-14T02:45:58.799Z,13.86
2022-09-14T02:48:36.934Z,13.77
2022-09-14T02:51:18.267Z,13.79
2022-09-14T02:54:07.287Z,13.77
2022-09-14T02:56:36.603Z,13.76
2022-09-14T02:59:04.266Z,13.75
2022-09-14T03:01:31.804Z,13.77
2022-09-14T03:03:59.311Z,13.79
2022-09-14T03:06:26.882Z,13.82
2022-09-14T03:08:54.333Z,13.82
2022-09-14T03:11:21.817Z,13.87
2022-09-14T03:13:49.333Z,13.80
2022-09-14T03:16:18.478Z,13.78
2022-09-14T03:18:45.944Z,13.75
2022-09-14T03:21:15.682Z,13.74
2022-09-14T03:23:48.278Z,13.82
2022-09-14T03:26:18.219Z,13.79
2022-09-14T03:28:50.182Z,13.80
2022-09-14T03:31:18.076Z,13.83
2022-09-14T03:33:45.596Z,13.84
2022-09-14T03:36:16.338Z,13.88
2022-09-14T03:38:49.286Z,13.95
2022-09-14T03:41:17.601Z,13.89
2022-09-14T03:43:45.702Z,13.85
2022-09-14T03:46:16.000Z,13.95
2022-09-14T03:48:44.543Z,13.94
2022-09-14T03:51:13.726Z,13.97
2022-09-14T03:53:42.321Z,13.99
2022-09-14T03:56:11.798Z,14.01
2022-09-14T03:58:39.275Z,14.07
2022-09-14T04:01:08.386Z,14.08
2022-09-14T04:03:36.190Z,14.11
2022-09-14T04:06:07.294Z,14.11
2022-09-14T04:08:36.818Z,14.14
2022-09-14T04:11:31.839Z,14.39
2022-09-14T04:14:04.254Z,14.27
2022-09-14T04:16:32.480Z,14.34
2022-09-14T04:18:59.999Z,14.42
2022-09-14T04:21:27.499Z,14.44
2022-09-14T04:24:14.608Z,14.54
2022-09-14T04:26:45.276Z,14.57
2022-09-14T04:29:14.865Z,14.59
2022-09-14T04:31:42.346Z,14.61
2022-09-14T04:34:14.090Z,14.68
2022-09-14T04:36:41.834Z,14.66
2022-09-14T04:39:13.968Z,14.76
2022-09-14T04:41:41.544Z,14.75
2022-09-14T04:44:08.947Z,14.77
2022-09-14T04:46:45.022Z,14.83
2022-09-14T04:49:14.571Z,14.92
2022-09-14T04:51:42.006Z,14.99
2022-09-14T04:54:13.788Z,15.03
2022-09-14T04:56:41.923Z,15.10
2022-09-14T04:59:09.799Z,15.14
2022-09-14T05:01:43.302Z,15.21
2022-09-14T05:04:11.995Z,15.51
2022-09-14T05:06:41.330Z,15.34
2022-09-14T05:09:13.926Z,15.38
2022-09-14T05:11:41.957Z,15.29
2022-09-14T05:14:12.190Z,15.32
2022-09-14T05:16:41.044Z,15.32
2022-09-14T05:19:11.708Z,15.34
2022-09-14T05:21:39.431Z,15.34
2022-09-14T05:24:12.772Z,15.40
2022-09-14T05:26:40.723Z,15.37
2022-09-14T05:29:08.303Z,15.42
2022-09-14T05:31:35.758Z,15.50
2022-09-14T05:34:03.230Z,15.59
2022-09-14T05:36:31.035Z,15.69
2022-09-14T05:38:58.680Z,15.73
2022-09-14T05:41:26.098Z,15.84
2022-09-14T05:43:53.539Z,15.94
2022-09-14T05:46:21.148Z,16.05
2022-09-14T05:48:51.983Z,16.23
2022-09-14T05:51:22.545Z,16.38
2022-09-14T05:53:57.977Z,16.57
2022-09-14T05:56:27.944Z,16.69
2022-09-14T05:58:55.714Z,16.77
2022-09-14T06:01:25.785Z,17.01
2022-09-14T06:03:58.642Z,17.24
2022-09-14T06:06:27.071Z,17.44
2022-09-14T06:08:55.608Z,17.87
2022-09-14T06:11:36.453Z,18.28
2022-09-14T06:14:04.064Z,18.87
2022-09-14T06:16:31.595Z,19.25
2022-09-14T06:19:00.033Z,19.56
2022-09-14T06:21:34.092Z,19.74
2022-09-14T06:24:01.593Z,19.99
2022-09-14T06:26:29.294Z,20.20
2022-09-14T06:28:57.009Z,20.49
2022-09-14T06:31:25.682Z,20.89
2022-09-14T06:33:53.815Z,21.15
2022-09-14T06:36:23.906Z,21.60
2022-09-14T06:38:51.582Z,22.27
2022-09-14T06:41:26.811Z,22.90
2022-09-14T06:43:56.998Z,23.49
2022-09-14T06:46:27.786Z,24.19
2022-09-14T06:49:06.068Z,24.35
2022-09-14T06:51:37.562Z,25.10
2022-09-14T06:54:06.096Z,25.61
2022-09-14T06:56:36.923Z,25.93
2022-09-14T06:59:05.916Z,26.08
2022-09-14T07:01:34.089Z,26.46
2022-09-14T07:04:01.992Z,27.02
2022-09-14T07:06:32.459Z,27.45
2022-09-14T07:09:04.177Z,27.71
2022-09-14T07:11:32.349Z,28.18
2022-09-14T07:14:00.228Z,28.03
2022-09-14T07:16:29.462Z,28.21
2022-09-14T07:18:58.787Z,28.33
2022-09-14T07:21:26.834Z,28.54
2022-09-14T07:23:55.841Z,28.58
2022-09-14T07:26:25.869Z,28.54
2022-09-14T07:28:56.616Z,28.48
2022-09-14T07:31:33.923Z,28.46
2022-09-14T07:34:03.686Z,28.52
2022-09-14T07:36:34.968Z,28.57
2022-09-14T07:39:06.426Z,28.55
2022-09-14T07:41:35.326Z,28.51
2022-09-14T07:44:05.588Z,28.45
2022-09-14T07:46:39.342Z,28.41
2022-09-14T07:49:08.245Z,28.24
2022-09-14T07:51:37.336Z,28.17
2022-09-14T07:54:07.116Z,28.07
2022-09-14T07:56:35.396Z,27.97
2022-09-14T08:01:52.027Z,27.87
2022-09-14T08:04:19.487Z,27.81
2022-09-14T08:06:46.873Z,27.73
2022-09-14T08:09:14.597Z,27.76
2022-09-14T08:11:42.176Z,27.69
2022-09-14T08:14:11.818Z,27.56
2022-09-14T08:16:41.136Z,27.41
2022-09-14T08:19:17.319Z,27.39
2022-09-14T08:21:47.680Z,27.15
2022-09-14T08:24:18.543Z,27.14
2022-09-14T08:26:46.896Z,27.04
2022-09-14T08:29:16.264Z,26.95
2022-09-14T08:31:45.932Z,26.76
2022-09-14T08:34:15.052Z,26.61
2022-09-14T08:36:43.764Z,26.50
2022-09-14T08:39:13.073Z,26.17
2022-09-14T08:41:50.904Z,26.05
2022-09-14T08:44:39.994Z,26.13
2022-09-14T08:47:13.909Z,25.70
2022-09-14T08:50:00.391Z,25.75
2022-09-14T08:52:37.438Z,25.46
2022-09-14T08:55:23.587Z,25.46
2022-09-14T08:58:46.426Z,25.34
2022-09-14T09:01:36.181Z,25.07
2022-09-14T09:04:09.668Z,24.64
2022-09-14T09:06:49.222Z,24.62
2022-09-14T09:09:40.748Z,24.41
2022-09-14T09:12:14.886Z,24.12
2022-09-14T09:14:52.031Z,23.89
2022-09-14T09:17:41.117Z,23.90
2022-09-14T09:20:23.843Z,23.65
2022-09-14T09:23:08.834Z,23.36
2022-09-14T09:25:55.334Z,23.50
2022-09-14T09:28:24.496Z,23.31
2022-09-14T09:30:54.397Z,23.26
2022-09-14T09:33:30.689Z,23.23
2022-09-14T09:36:14.254Z,23.26
2022-09-14T09:38:42.469Z,23.14
2022-09-14T09:41:26.818Z,23.30
2022-09-14T09:44:09.671Z,23.27
2022-09-14T09:46:48.412Z,23.57
2022-09-14T09:49:37.964Z,23.39
2022-09-14T09:52:17.690Z,23.26
2022-09-14T09:54:56.234Z,23.06
2022-09-14T09:57:30.453Z,22.95
2022-09-14T10:00:19.375Z,22.92
2022-09-14T10:02:47.308Z,22.61
2022-09-14T10:05:14.850Z,22.57
2022-09-14T10:07:51.273Z,22.70
2022-09-14T10:10:22.195Z,22.53
2022-09-14T10:12:52.967Z,22.51
2022-09-14T10:15:26.620Z,22.64
2022-09-14T10:18:16.081Z,22.74
2022-09-14T10:20:53.264Z,22.66
2022-09-14T10:23:23.471Z,22.55
2022-09-14T10:26:12.223Z,22.53
2022-09-14T10:28:45.356Z,22.51
2022-09-14T10:31:26.369Z,22.47
2022-09-14T10:33:58.334Z,22.37
2022-09-14T10:36:30.470Z,22.34
2022-09-14T10:39:14.603Z,22.31
2022-09-14T10:41:51.467Z,22.28
2022-09-14T10:44:43.790Z,22.58
2022-09-14T10:47:21.909Z,22.33
2022-09-14T10:50:07.594Z,22.34
2022-09-14T10:52:55.082Z,22.37
2022-09-14T10:55:33.948Z,22.25
2022-09-14T10:58:27.930Z,22.03
2022-09-14T11:01:33.180Z,22.34
2022-09-14T11:04:05.221Z,22.19
2022-09-14T11:06:38.778Z,22.16
2022-09-14T11:09:32.618Z,22.14
2022-09-14T11:12:15.287Z,21.93
2022-09-14T11:15:09.410Z,22.05
2022-09-14T11:17:49.163Z,21.96
2022-09-14T11:20:44.788Z,21.94
2022-09-14T11:23:30.716Z,21.73
2022-09-14T11:26:03.999Z,21.60
2022-09-14T11:28:39.591Z,21.63
2022-09-14T11:31:14.566Z,21.56
2022-09-14T11:34:08.409Z,21.50
2022-09-14T11:36:47.731Z,21.56
2022-09-14T11:39:32.183Z,21.52
2022-09-14T11:42:02.366Z,21.33
2022-09-14T11:44:45.324Z,21.49
2022-09-14T11:47:19.132Z,21.36
2022-09-14T11:50:09.084Z,21.27
2022-09-14T11:52:36.771Z,21.24
2022-09-14T11:55:11.217Z,21.24
2022-09-14T11:57:39.059Z,21.23
2022-09-14T12:00:32.613Z,21.51
2022-09-14T12:03:14.498Z,21.22
2022-09-14T12:05:44.930Z,21.15
2022-09-14T12:08:24.983Z,21.32
2022-09-14T12:11:09.049Z,21.27
2022-09-14T12:13:37.763Z,21.04
2022-09-14T12:16:09.991Z,21.01
2022-09-14T12:18:40.057Z,20.90
2022-09-14T12:21:26.325Z,20.95
2022-09-14T12:23:58.123Z,20.76
2022-09-14T12:26:31.562Z,20.70
2022-09-14T12:29:25.739Z,20.72
2022-09-14T12:32:00.230Z,20.61
2022-09-14T12:34:32.214Z,20.43
2022-09-14T12:37:21.647Z,20.43
2022-09-14T12:40:24.842Z,20.60
2022-09-14T12:42:52.576Z,20.23
2022-09-14T12:46:01.549Z,20.51
2022-09-14T12:48:55.915Z,20.45
2022-09-14T12:51:32.882Z,20.20
2022-09-14T12:54:09.458Z,20.13
2022-09-14T12:56:48.855Z,20.08
2022-09-14T12:59:34.559Z,19.98
2022-09-14T13:02:26.404Z,19.81
2022-09-14T13:04:57.991Z,19.79
2022-09-14T13:07:31.203Z,19.75
2022-09-14T13:10:00.891Z,19.60
2022-09-14T13:12:44.109Z,19.58
2022-09-14T13:15:28.427Z,19.65
2022-09-14T13:17:58.400Z,19.35
2022-09-14T13:20:26.208Z,19.27
2022-09-14T13:22:54.234Z,19.26
2022-09-14T13:25:35.248Z,19.41
2022-09-14T13:28:08.173Z,19.25
2022-09-14T13:30:36.487Z,19.20
2022-09-14T13:33:04.938Z,19.17
2022-09-14T13:35:39.456Z,19.25
2022-09-14T13:38:10.239Z,19.17
2022-09-14T13:40:38.024Z,19.03
2022-09-14T13:43:06.254Z,18.93
2022-09-14T13:45:34.337Z,18.86
2022-09-14T13:48:02.347Z,18.87
2022-09-14T13:50:30.138Z,18.80
2022-09-14T13:53:02.599Z,18.78
2022-09-14T13:55:33.856Z,18.87
2022-09-14T13:58:10.495Z,18.88
2022-09-14T14:01:04.827Z,18.88
2022-09-14T14:03:49.840Z,18.84
2022-09-14T14:06:25.656Z,18.60
2022-09-14T14:09:08.703Z,18.66
2022-09-14T14:11:38.107Z,18.90
2022-09-14T14:14:20.902Z,18.38
2022-09-14T14:17:20.487Z,18.21
2022-09-14T14:19:49.849Z,17.88
2022-09-14T14:22:35.853Z,17.98
2022-09-14T14:25:19.670Z,17.88
2022-09-14T14:27:48.800Z,17.60
2022-09-14T14:30:20.452Z,17.62
2022-09-14T14:32:52.600Z,17.58
2022-09-14T14:35:23.269Z,17.46
2022-09-14T14:37:51.175Z,17.38
2022-09-14T14:40:20.094Z,17.26
2022-09-14T14:42:49.394Z,17.20
2022-09-14T14:45:21.649Z,17.20
2022-09-14T14:47:54.007Z,17.07
2022-09-14T14:50:29.246Z,17.12
2022-09-14T14:52:57.511Z,17.09
2022-09-14T14:55:25.970Z,17.10
2022-09-14T14:57:53.809Z,17.15
2022-09-14T15:00:23.955Z,17.14
2022-09-14T15:02:52.229Z,17.07
2022-09-14T15:05:20.162Z,16.96
2022-09-14T15:07:50.048Z,16.98
2022-09-14T15:10:18.579Z,16.97
2022-09-14T15:12:46.685Z,16.97
2022-09-14T15:15:15.923Z,16.92
2022-09-14T15:17:45.043Z,16.91
2022-09-14T15:20:13.529Z,16.88
2022-09-14T15:22:44.696Z,16.84
2022-09-14T15:25:13.158Z,16.79
2022-09-14T15:27:41.568Z,16.79
2022-09-14T15:30:10.604Z,16.76
2022-09-14T15:32:38.620Z,16.72
2022-09-14T15:35:08.069Z,16.74
2022-09-14T15:37:35.591Z,16.55
2022-09-14T15:40:04.780Z,16.70
2022-09-14T15:42:32.326Z,16.64
2022-09-14T15:44:59.908Z,16.61
2022-09-14T15:47:27.380Z,16.59
2022-09-14T15:49:54.831Z,16.59
2022-09-14T15:52:22.262Z,16.47
2022-09-14T15:54:49.803Z,16.41
2022-09-14T15:57:17.319Z,16.36
2022-09-14T15:59:44.817Z,16.27
2022-09-14T16:02:12.692Z,16.23
2022-09-14T16:04:40.559Z,16.25
2022-09-14T16:07:10.158Z,16.24
2022-09-14T16:09:39.503Z,16.24
2022-09-14T16:12:08.340Z,16.20
2022-09-14T16:14:35.889Z,16.15
2022-09-14T16:17:03.685Z,16.10
2022-09-14T16:19:31.786Z,16.05
2022-09-14T16:21:59.634Z,16.05
2022-09-14T16:24:27.946Z,16.02
2022-09-14T16:26:58.049Z,15.98
2022-09-14T16:29:26.484Z,15.96
2022-09-14T16:31:54.189Z,15.86
2022-09-14T16:34:27.310Z,15.90
2022-09-14T16:36:55.760Z,15.87
2022-09-14T16:39:26.481Z,15.87
2022-09-14T16:41:57.524Z,15.81
2022-09-14T16:44:26.777Z,15.78
2022-09-14T16:46:57.910Z,15.77
2022-09-14T16:49:28.195Z,15.70
2022-09-14T16:51:57.514Z,15.66
2022-09-14T16:54:26.954Z,15.63
2022-09-14T16:56:58.346Z,15.64
2022-09-14T16:59:26.622Z,15.63
2022-09-14T17:01:55.377Z,15.55
2022-09-14T17:04:24.304Z,15.61
2022-09-14T17:06:52.609Z,15.57
2022-09-14T17:09:23.506Z,15.58
2022-09-14T17:11:52.173Z,15.48
2022-09-14T17:14:24.039Z,15.52
2022-09-14T17:16:52.223Z,15.45
2022-09-14T17:19:19.770Z,15.42
2022-09-14T17:21:48.180Z,15.44
2022-09-14T17:24:17.563Z,15.42
2022-09-14T17:26:45.153Z,15.37
2022-09-14T17:29:13.538Z,15.36
2022-09-14T17:31:42.597Z,15.35
2022-09-14T17:34:12.444Z,15.33
2022-09-14T17:36:41.020Z,15.25
2022-09-14T17:39:12.187Z,15.21
2022-09-14T17:41:41.821Z,15.23
2022-09-14T17:44:12.124Z,15.23
2022-09-14T17:46:50.796Z,15.20
2022-09-14T17:49:21.899Z,15.24
2022-09-14T17:51:51.448Z,15.18
2022-09-14T17:54:20.158Z,15.20
2022-09-14T17:56:47.869Z,15.11
2022-09-14T17:59:20.508Z,15.10
2022-09-14T18:01:49.509Z,15.09
2022-09-14T18:04:17.980Z,15.10
2022-09-14T18:06:50.348Z,15.11
2022-09-14T18:09:23.191Z,15.21
2022-09-14T18:11:51.604Z,15.09
2022-09-14T18:14:19.431Z,15.04
2022-09-14T18:16:47.227Z,15.05
2022-09-14T18:19:16.100Z,15.02
2022-09-14T18:21:48.957Z,15.01
2022-09-14T18:24:19.637Z,14.94
2022-09-14T18:26:49.041Z,14.97
2022-09-14T18:29:21.380Z,14.96
2022-09-14T18:31:49.912Z,14.93
2022-09-14T18:34:17.483Z,14.85
2022-09-14T18:36:45.033Z,14.84
2022-09-14T18:39:13.377Z,14.82
2022-09-14T18:41:41.386Z,14.79
2022-09-14T18:44:08.952Z,14.79
2022-09-14T18:46:37.916Z,14.80
2022-09-14T18:49:05.543Z,14.70
2022-09-14T18:51:33.379Z,14.69
2022-09-14T18:54:03.932Z,14.68
2022-09-14T18:56:35.569Z,14.66
2022-09-14T18:59:05.178Z,14.71
2022-09-14T19:01:36.964Z,14.75
2022-09-14T19:04:06.813Z,14.67
2022-09-14T19:06:36.102Z,14.64
2022-09-14T19:09:05.469Z,14.63
2022-09-14T19:11:33.656Z,14.56
2022-09-14T19:14:05.219Z,14.63
2022-09-14T19:16:32.797Z,14.59
2022-09-14T19:19:00.350Z,14.56
2022-09-14T19:21:30.066Z,14.55
2022-09-14T19:24:03.198Z,14.63
2022-09-14T19:26:34.488Z,14.51
2022-09-14T19:29:03.650Z,14.51
2022-09-14T19:31:31.710Z,14.49
2022-09-14T19:34:00.923Z,14.47
2022-09-14T19:36:29.668Z,14.49
2022-09-14T19:39:01.998Z,14.50
2022-09-14T19:41:31.432Z,14.44
2022-09-14T19:43:59.795Z,14.44
2022-09-14T19:46:27.813Z,14.40
2022-09-14T19:48:55.789Z,14.34
2022-09-14T19:51:27.463Z,14.33
2022-09-14T19:53:57.324Z,14.38
2022-09-14T19:56:26.646Z,14.36
2022-09-14T19:58:58.055Z,14.42
2022-09-14T20:01:27.382Z,14.35
2022-09-14T20:03:55.160Z,14.30
2022-09-14T20:06:34.581Z,14.35
2022-09-14T20:09:09.083Z,14.37
2022-09-14T20:11:38.246Z,14.33
2022-09-14T20:14:08.779Z,14.34
2022-09-14T20:16:48.483Z,14.45
2022-09-14T20:19:21.307Z,14.38
2022-09-14T20:21:50.983Z,14.37
2022-09-14T20:24:27.121Z,14.45
2022-09-14T20:26:57.392Z,14.42
2022-09-14T20:29:26.254Z,14.34
2022-09-14T20:31:53.582Z,14.32
2022-09-14T20:34:21.367Z,14.34
2022-09-14T20:36:50.134Z,14.36
2022-09-14T20:39:18.786Z,14.33
2022-09-14T20:41:46.789Z,14.31
2022-09-14T20:44:14.947Z,14.27
2022-09-14T20:46:44.530Z,14.30
2022-09-14T20:49:14.912Z,14.29
2022-09-14T20:51:43.324Z,14.27
2022-09-14T20:54:14.114Z,14.31
2022-09-14T20:56:42.582Z,14.19
2022-09-14T20:59:12.804Z,14.21
2022-09-14T21:01:42.329Z,14.19
2022-09-14T21:04:13.450Z,14.15
2022-09-14T21:06:44.684Z,14.18
2022-09-14T21:09:13.508Z,14.13
2022-09-14T21:11:42.135Z,14.05
2022-09-14T21:14:09.800Z,13.97
2022-09-14T21:16:43.063Z,13.98
2022-09-14T21:19:14.163Z,14.00
2022-09-14T21:21:42.910Z,13.94
2022-09-14T21:24:13.581Z,13.90
2022-09-14T21:26:43.089Z,13.88
2022-09-14T21:29:18.496Z,13.92
2022-09-14T21:31:46.068Z,13.78
2022-09-14T21:34:13.770Z,13.73
2022-09-14T21:37:10.180Z,13.86
2022-09-14T21:40:07.399Z,13.76
2022-09-14T21:42:34.791Z,13.75
2022-09-14T21:45:02.264Z,13.72
2022-09-14T21:47:30.405Z,13.73
2022-09-14T21:49:57.816Z,13.71
2022-09-14T21:52:25.284Z,13.70
2022-09-14T21:54:52.651Z,13.69
2022-09-14T21:57:20.039Z,13.71
2022-09-14T21:59:47.421Z,13.67
2022-09-14T22:02:15.574Z,13.61
2022-09-14T22:04:43.051Z,13.62
2022-09-14T22:07:10.383Z,13.62
2022-09-14T22:09:37.785Z,13.61
2022-09-14T22:12:05.352Z,13.65
2022-09-14T22:14:33.391Z,13.43
2022-09-14T22:17:00.823Z,13.42
2022-09-14T22:19:32.510Z,13.49
2022-09-14T22:22:00.254Z,13.50
2022-09-14T22:24:38.288Z,13.64
2022-09-14T22:27:10.913Z,13.51
2022-09-14T22:29:40.919Z,13.48
2022-09-14T22:32:10.498Z,13.49
2022-09-14T22:34:49.432Z,13.58
2022-09-14T22:37:17.282Z,13.49
2022-09-14T22:39:44.705Z,13.45
2022-09-14T22:42:12.398Z,13.48
2022-09-14T22:44:39.847Z,13.44
2022-09-14T22:47:07.453Z,13.42
2022-09-14T22:49:34.845Z,13.36
2022-09-14T22:52:02.431Z,13.33
2022-09-14T22:54:29.853Z,13.35
2022-09-14T22:56:57.819Z,13.35
2022-09-14T22:59:25.185Z,13.32
2022-09-14T23:01:52.708Z,13.32
2022-09-14T23:04:20.280Z,13.30
2022-09-14T23:06:48.595Z,13.34
2022-09-14T23:09:18.797Z,13.29
2022-09-14T23:11:46.929Z,13.27
2022-09-14T23:14:15.819Z,13.25
2022-09-14T23:16:45.495Z,13.24
2022-09-14T23:19:17.927Z,13.29
2022-09-14T23:21:45.945Z,13.23
2022-09-14T23:24:13.634Z,13.18
2022-09-14T23:26:41.415Z,13.24
2022-09-14T23:29:12.920Z,13.25
2022-09-14T23:31:40.399Z,13.18
2022-09-14T23:34:08.042Z,13.20
2022-09-14T23:36:35.965Z,13.24
2022-09-14T23:39:03.914Z,13.19
2022-09-14T23:41:32.064Z,13.16
2022-09-14T23:43:59.483Z,13.18
2022-09-14T23:46:27.090Z,13.15
2022-09-14T23:48:54.516Z,13.16
2022-09-14T23:51:22.281Z,13.12
2022-09-14T23:53:49.686Z,13.14
2022-09-14T23:56:17.059Z,13.11
2022-09-14T23:58:44.674Z,13.09
